sensor_id;sensor_type;location;lat;lon;timestamp;temperature;humidity
67157;SHT31;54086;50.126;8.710;2023-05-10T00:02:02;14.24;96.35
67157;SHT31;54086;50.126;8.710;2023-05-10T00:04:28;14.22;96.70
67157;SHT31;54086;50.126;8.710;2023-05-10T00:06:54;14.34;97.01
67157;SHT31;54086;50.126;8.710;2023-05-10T00:09:19;14.35;96.80
67157;SHT31;54086;50.126;8.710;2023-05-10T00:11:45;14.32;96.56
67157;SHT31;54086;50.126;8.710;2023-05-10T00:14:11;14.34;96.48
67157;SHT31;54086;50.126;8.710;2023-05-10T00:16:36;14.49;96.88
67157;SHT31;54086;50.126;8.710;2023-05-10T00:19:02;14.38;96.60
67157;SHT31;54086;50.126;8.710;2023-05-10T00:21:27;14.49;96.94
67157;SHT31;54086;50.126;8.710;2023-05-10T00:23:53;14.39;96.27
67157;SHT31;54086;50.126;8.710;2023-05-10T00:26:19;14.31;95.86
67157;SHT31;54086;50.126;8.710;2023-05-10T00:28:45;14.20;95.79
67157;SHT31;54086;50.126;8.710;2023-05-10T00:31:10;14.17;95.97
67157;SHT31;54086;50.126;8.710;2023-05-10T00:33:35;14.21;95.80
67157;SHT31;54086;50.126;8.710;2023-05-10T00:36:02;14.20;95.80
67157;SHT31;54086;50.126;8.710;2023-05-10T00:38:27;14.14;95.53
67157;SHT31;54086;50.126;8.710;2023-05-10T00:40:54;14.20;95.68
67157;SHT31;54086;50.126;8.710;2023-05-10T00:43:19;14.14;95.39
67157;SHT31;54086;50.126;8.710;2023-05-10T00:45:45;14.14;95.60
67157;SHT31;54086;50.126;8.710;2023-05-10T00:48:11;14.07;95.53
67157;SHT31;54086;50.126;8.710;2023-05-10T00:50:36;14.10;95.80
67157;SHT31;54086;50.126;8.710;2023-05-10T00:53:05;14.08;95.88
67157;SHT31;54086;50.126;8.710;2023-05-10T00:55:30;14.04;95.54
67157;SHT31;54086;50.126;8.710;2023-05-10T00:57:56;13.94;95.64
67157;SHT31;54086;50.126;8.710;2023-05-10T01:00:21;14.03;95.82
67157;SHT31;54086;50.126;8.710;2023-05-10T01:02:47;14.04;95.46
67157;SHT31;54086;50.126;8.710;2023-05-10T01:05:12;14.04;95.07
67157;SHT31;54086;50.126;8.710;2023-05-10T01:07:38;13.97;95.03
67157;SHT31;54086;50.126;8.710;2023-05-10T01:10:06;13.83;95.29
67157;SHT31;54086;50.126;8.710;2023-05-10T01:12:33;13.83;95.54
67157;SHT31;54086;50.126;8.710;2023-05-10T01:15:00;13.90;95.68
67157;SHT31;54086;50.126;8.710;2023-05-10T01:17:26;13.76;95.62
67157;SHT31;54086;50.126;8.710;2023-05-10T01:19:52;13.69;95.52
67157;SHT31;54086;50.126;8.710;2023-05-10T01:36:54;13.59;95.75
67157;SHT31;54086;50.126;8.710;2023-05-10T01:39:28;13.55;95.61
67157;SHT31;54086;50.126;8.710;2023-05-10T01:42:10;13.53;95.75
67157;SHT31;54086;50.126;8.710;2023-05-10T01:50:02;13.60;95.53
67157;SHT31;54086;50.126;8.710;2023-05-10T01:52:34;13.63;95.31
67157;SHT31;54086;50.126;8.710;2023-05-10T01:55:08;13.63;95.33
67157;SHT31;54086;50.126;8.710;2023-05-10T01:57:36;13.59;95.21
67157;SHT31;54086;50.126;8.710;2023-05-10T02:00:03;13.63;95.06
67157;SHT31;54086;50.126;8.710;2023-05-10T02:02:33;13.63;94.96
67157;SHT31;54086;50.126;8.710;2023-05-10T02:05:00;13.66;94.70
67157;SHT31;54086;50.126;8.710;2023-05-10T02:07:28;13.65;94.87
67157;SHT31;54086;50.126;8.710;2023-05-10T02:09:54;13.62;95.08
67157;SHT31;54086;50.126;8.710;2023-05-10T02:12:22;13.57;95.26
67157;SHT31;54086;50.126;8.710;2023-05-10T02:14:50;13.63;95.21
67157;SHT31;54086;50.126;8.710;2023-05-10T02:17:17;13.52;94.95
67157;SHT31;54086;50.126;8.710;2023-05-10T02:19:44;13.53;95.13
67157;SHT31;54086;50.126;8.710;2023-05-10T02:22:11;13.49;94.90
67157;SHT31;54086;50.126;8.710;2023-05-10T02:24:38;13.47;95.11
67157;SHT31;54086;50.126;8.710;2023-05-10T02:27:06;13.40;94.89
67157;SHT31;54086;50.126;8.710;2023-05-10T02:29:32;13.36;95.24
67157;SHT31;54086;50.126;8.710;2023-05-10T02:31:59;13.39;95.49
67157;SHT31;54086;50.126;8.710;2023-05-10T02:34:28;13.36;95.85
67157;SHT31;54086;50.126;8.710;2023-05-10T02:36:56;13.34;96.09
67157;SHT31;54086;50.126;8.710;2023-05-10T02:39:23;13.32;96.14
67157;SHT31;54086;50.126;8.710;2023-05-10T02:41:52;13.23;96.38
67157;SHT31;54086;50.126;8.710;2023-05-10T02:44:20;13.25;96.37
67157;SHT31;54086;50.126;8.710;2023-05-10T02:46:49;13.14;96.38
67157;SHT31;54086;50.126;8.710;2023-05-10T02:49:15;13.20;96.51
67157;SHT31;54086;50.126;8.710;2023-05-10T02:51:44;13.11;96.42
67157;SHT31;54086;50.126;8.710;2023-05-10T02:54:17;13.20;96.57
67157;SHT31;54086;50.126;8.710;2023-05-10T02:56:48;13.19;96.43
67157;SHT31;54086;50.126;8.710;2023-05-10T02:59:15;13.14;96.44
67157;SHT31;54086;50.126;8.710;2023-05-10T03:01:41;13.12;96.44
67157;SHT31;54086;50.126;8.710;2023-05-10T03:04:06;13.15;96.42
67157;SHT31;54086;50.126;8.710;2023-05-10T03:06:32;13.19;96.53
67157;SHT31;54086;50.126;8.710;2023-05-10T03:08:59;13.19;96.43
67157;SHT31;54086;50.126;8.710;2023-05-10T03:11:55;13.22;96.17
67157;SHT31;54086;50.126;8.710;2023-05-10T03:14:37;13.30;96.10
67157;SHT31;54086;50.126;8.710;2023-05-10T03:17:17;13.28;95.76
67157;SHT31;54086;50.126;8.710;2023-05-10T03:19:53;13.36;95.80
67157;SHT31;54086;50.126;8.710;2023-05-10T03:22:32;13.25;95.30
67157;SHT31;54086;50.126;8.710;2023-05-10T03:25:04;13.34;95.15
67157;SHT31;54086;50.126;8.710;2023-05-10T03:27:31;13.28;95.36
67157;SHT31;54086;50.126;8.710;2023-05-10T03:29:57;13.26;95.64
67157;SHT31;54086;50.126;8.710;2023-05-10T03:32:23;13.26;95.82
67157;SHT31;54086;50.126;8.710;2023-05-10T03:34:48;13.15;95.75
67157;SHT31;54086;50.126;8.710;2023-05-10T03:37:14;13.22;95.84
67157;SHT31;54086;50.126;8.710;2023-05-10T03:39:39;13.20;95.86
67157;SHT31;54086;50.126;8.710;2023-05-10T03:42:05;13.25;95.55
67157;SHT31;54086;50.126;8.710;2023-05-10T03:44:31;13.28;95.42
67157;SHT31;54086;50.126;8.710;2023-05-10T03:46:58;13.32;95.21
67157;SHT31;54086;50.126;8.710;2023-05-10T03:49:23;13.35;95.15
67157;SHT31;54086;50.126;8.710;2023-05-10T03:51:50;13.29;94.78
67157;SHT31;54086;50.126;8.710;2023-05-10T03:54:15;13.30;95.19
67157;SHT31;54086;50.126;8.710;2023-05-10T03:56:41;13.35;95.03
67157;SHT31;54086;50.126;8.710;2023-05-10T03:59:06;13.35;95.14
67157;SHT31;54086;50.126;8.710;2023-05-10T04:01:34;13.35;95.13
67157;SHT31;54086;50.126;8.710;2023-05-10T04:03:59;13.19;95.26
67157;SHT31;54086;50.126;8.710;2023-05-10T04:06:25;13.14;95.50
67157;SHT31;54086;50.126;8.710;2023-05-10T04:08:52;13.18;95.78
67157;SHT31;54086;50.126;8.710;2023-05-10T04:11:17;13.16;95.93
67157;SHT31;54086;50.126;8.710;2023-05-10T04:13:43;13.14;95.80
67157;SHT31;54086;50.126;8.710;2023-05-10T04:16:08;13.18;95.87
67157;SHT31;54086;50.126;8.710;2023-05-10T04:18:34;13.14;95.75
67157;SHT31;54086;50.126;8.710;2023-05-10T04:21:00;13.16;95.84
67157;SHT31;54086;50.126;8.710;2023-05-10T04:23:26;13.14;95.79
67157;SHT31;54086;50.126;8.710;2023-05-10T04:25:52;13.14;95.79
67157;SHT31;54086;50.126;8.710;2023-05-10T04:28:17;13.11;95.71
67157;SHT31;54086;50.126;8.710;2023-05-10T04:30:42;13.09;95.87
67157;SHT31;54086;50.126;8.710;2023-05-10T04:33:09;13.12;95.94
67157;SHT31;54086;50.126;8.710;2023-05-10T04:35:34;13.12;95.78
67157;SHT31;54086;50.126;8.710;2023-05-10T04:38:00;13.15;95.62
67157;SHT31;54086;50.126;8.710;2023-05-10T04:40:25;13.18;95.58
67157;SHT31;54086;50.126;8.710;2023-05-10T04:42:51;13.19;95.55
67157;SHT31;54086;50.126;8.710;2023-05-10T04:45:17;13.16;95.36
67157;SHT31;54086;50.126;8.710;2023-05-10T04:47:42;13.28;95.21
67157;SHT31;54086;50.126;8.710;2023-05-10T04:50:08;13.26;94.99
67157;SHT31;54086;50.126;8.710;2023-05-10T04:52:33;13.32;94.91
67157;SHT31;54086;50.126;8.710;2023-05-10T04:54:59;13.39;94.92
67157;SHT31;54086;50.126;8.710;2023-05-10T04:57:26;13.42;94.76
67157;SHT31;54086;50.126;8.710;2023-05-10T04:59:51;13.38;94.75
67157;SHT31;54086;50.126;8.710;2023-05-10T05:02:18;13.30;94.95
67157;SHT31;54086;50.126;8.710;2023-05-10T05:04:44;13.29;94.87
67157;SHT31;54086;50.126;8.710;2023-05-10T05:07:09;13.40;94.93
67157;SHT31;54086;50.126;8.710;2023-05-10T05:09:34;13.39;94.97
67157;SHT31;54086;50.126;8.710;2023-05-10T05:12:00;13.38;94.89
67157;SHT31;54086;50.126;8.710;2023-05-10T05:14:25;13.32;95.00
67157;SHT31;54086;50.126;8.710;2023-05-10T05:16:51;13.39;95.07
67157;SHT31;54086;50.126;8.710;2023-05-10T05:19:17;13.40;95.12
67157;SHT31;54086;50.126;8.710;2023-05-10T05:21:42;13.40;95.07
67157;SHT31;54086;50.126;8.710;2023-05-10T05:24:09;13.49;95.07
67157;SHT31;54086;50.126;8.710;2023-05-10T05:26:35;13.42;94.86
67157;SHT31;54086;50.126;8.710;2023-05-10T05:29:00;13.47;95.04
67157;SHT31;54086;50.126;8.710;2023-05-10T05:31:26;13.43;95.04
67157;SHT31;54086;50.126;8.710;2023-05-10T05:33:52;13.40;94.83
67157;SHT31;54086;50.126;8.710;2023-05-10T05:36:17;13.38;94.88
67157;SHT31;54086;50.126;8.710;2023-05-10T05:38:43;13.42;94.89
67157;SHT31;54086;50.126;8.710;2023-05-10T05:41:08;13.46;95.06
67157;SHT31;54086;50.126;8.710;2023-05-10T05:43:33;13.43;94.84
67157;SHT31;54086;50.126;8.710;2023-05-10T05:45:59;13.45;94.91
67157;SHT31;54086;50.126;8.710;2023-05-10T05:48:24;13.47;95.01
67157;SHT31;54086;50.126;8.710;2023-05-10T05:50:50;13.50;94.54
67157;SHT31;54086;50.126;8.710;2023-05-10T05:53:15;13.50;94.80
67157;SHT31;54086;50.126;8.710;2023-05-10T05:55:50;13.50;94.55
67157;SHT31;54086;50.126;8.710;2023-05-10T05:58:17;13.55;94.43
67157;SHT31;54086;50.126;8.710;2023-05-10T06:00:43;13.59;94.61
67157;SHT31;54086;50.126;8.710;2023-05-10T06:03:08;13.56;94.26
67157;SHT31;54086;50.126;8.710;2023-05-10T06:05:33;13.66;94.26
67157;SHT31;54086;50.126;8.710;2023-05-10T06:07:59;13.73;94.13
67157;SHT31;54086;50.126;8.710;2023-05-10T06:10:25;13.84;94.12
67157;SHT31;54086;50.126;8.710;2023-05-10T06:12:52;13.74;93.79
67157;SHT31;54086;50.126;8.710;2023-05-10T06:15:18;13.74;93.42
67157;SHT31;54086;50.126;8.710;2023-05-10T06:17:43;13.81;93.56
67157;SHT31;54086;50.126;8.710;2023-05-10T06:20:09;13.83;93.46
67157;SHT31;54086;50.126;8.710;2023-05-10T06:22:35;13.80;93.60
67157;SHT31;54086;50.126;8.710;2023-05-10T06:25:00;13.83;93.43
67157;SHT31;54086;50.126;8.710;2023-05-10T06:27:27;13.87;93.05
67157;SHT31;54086;50.126;8.710;2023-05-10T06:29:52;13.90;93.25
67157;SHT31;54086;50.126;8.710;2023-05-10T06:32:17;13.81;93.26
67157;SHT31;54086;50.126;8.710;2023-05-10T06:34:43;13.87;93.46
67157;SHT31;54086;50.126;8.710;2023-05-10T06:37:09;13.91;93.49
67157;SHT31;54086;50.126;8.710;2023-05-10T06:39:35;13.90;93.37
67157;SHT31;54086;50.126;8.710;2023-05-10T06:42:01;13.91;93.12
67157;SHT31;54086;50.126;8.710;2023-05-10T06:44:27;13.83;93.11
67157;SHT31;54086;50.126;8.710;2023-05-10T06:46:53;13.90;93.28
67157;SHT31;54086;50.126;8.710;2023-05-10T06:49:21;13.97;92.91
67157;SHT31;54086;50.126;8.710;2023-05-10T06:51:46;14.10;92.66
67157;SHT31;54086;50.126;8.710;2023-05-10T06:54:11;14.24;92.13
67157;SHT31;54086;50.126;8.710;2023-05-10T06:56:37;14.34;92.04
67157;SHT31;54086;50.126;8.710;2023-05-10T06:59:02;14.25;91.88
67157;SHT31;54086;50.126;8.710;2023-05-10T07:01:28;14.35;91.88
67157;SHT31;54086;50.126;8.710;2023-05-10T07:03:53;14.34;91.56
67157;SHT31;54086;50.126;8.710;2023-05-10T07:06:18;14.36;91.30
67157;SHT31;54086;50.126;8.710;2023-05-10T07:08:44;14.52;91.07
67157;SHT31;54086;50.126;8.710;2023-05-10T07:11:09;14.62;91.27
67157;SHT31;54086;50.126;8.710;2023-05-10T07:13:37;14.59;90.71
67157;SHT31;54086;50.126;8.710;2023-05-10T07:16:06;14.58;90.87
67157;SHT31;54086;50.126;8.710;2023-05-10T07:18:33;14.59;90.96
67157;SHT31;54086;50.126;8.710;2023-05-10T07:20:58;14.45;90.96
67157;SHT31;54086;50.126;8.710;2023-05-10T07:23:24;14.39;91.25
67157;SHT31;54086;50.126;8.710;2023-05-10T07:25:50;14.54;91.16
67157;SHT31;54086;50.126;8.710;2023-05-10T07:28:21;14.49;90.81
67157;SHT31;54086;50.126;8.710;2023-05-10T07:30:47;14.64;90.89
67157;SHT31;54086;50.126;8.710;2023-05-10T07:33:13;14.73;90.63
67157;SHT31;54086;50.126;8.710;2023-05-10T07:35:39;14.87;90.28
67157;SHT31;54086;50.126;8.710;2023-05-10T07:38:05;14.90;89.00
67157;SHT31;54086;50.126;8.710;2023-05-10T07:40:30;14.97;88.81
67157;SHT31;54086;50.126;8.710;2023-05-10T07:42:56;15.08;88.41
67157;SHT31;54086;50.126;8.710;2023-05-10T07:45:22;15.16;88.89
67157;SHT31;54086;50.126;8.710;2023-05-10T07:47:48;14.71;90.25
67157;SHT31;54086;50.126;8.710;2023-05-10T07:50:13;14.56;90.62
67157;SHT31;54086;50.126;8.710;2023-05-10T07:52:39;14.65;90.54
67157;SHT31;54086;50.126;8.710;2023-05-10T07:55:05;14.66;90.76
67157;SHT31;54086;50.126;8.710;2023-05-10T07:57:30;14.77;90.51
67157;SHT31;54086;50.126;8.710;2023-05-10T07:59:56;14.93;90.11
67157;SHT31;54086;50.126;8.710;2023-05-10T08:02:21;14.99;90.06
67157;SHT31;54086;50.126;8.710;2023-05-10T08:04:46;15.16;89.51
67157;SHT31;54086;50.126;8.710;2023-05-10T08:07:12;15.10;89.27
67157;SHT31;54086;50.126;8.710;2023-05-10T08:09:37;15.14;89.04
67157;SHT31;54086;50.126;8.710;2023-05-10T08:12:03;15.24;88.89
67157;SHT31;54086;50.126;8.710;2023-05-10T08:14:29;15.44;88.43
67157;SHT31;54086;50.126;8.710;2023-05-10T08:16:55;15.68;87.68
67157;SHT31;54086;50.126;8.710;2023-05-10T08:19:21;15.64;87.69
67157;SHT31;54086;50.126;8.710;2023-05-10T08:21:48;15.62;87.63
67157;SHT31;54086;50.126;8.710;2023-05-10T08:24:15;15.71;87.25
67157;SHT31;54086;50.126;8.710;2023-05-10T08:26:40;15.81;87.39
67157;SHT31;54086;50.126;8.710;2023-05-10T08:29:06;15.79;87.08
67157;SHT31;54086;50.126;8.710;2023-05-10T08:31:31;15.84;86.91
67157;SHT31;54086;50.126;8.710;2023-05-10T08:33:56;15.64;87.01
67157;SHT31;54086;50.126;8.710;2023-05-10T08:36:22;15.35;88.18
67157;SHT31;54086;50.126;8.710;2023-05-10T08:38:53;15.69;87.41
67157;SHT31;54086;50.126;8.710;2023-05-10T08:41:22;15.79;87.27
67157;SHT31;54086;50.126;8.710;2023-05-10T08:43:50;15.95;87.14
67157;SHT31;54086;50.126;8.710;2023-05-10T08:46:17;15.77;87.44
67157;SHT31;54086;50.126;8.710;2023-05-10T08:48:46;15.89;87.64
67157;SHT31;54086;50.126;8.710;2023-05-10T08:51:18;15.91;87.49
67157;SHT31;54086;50.126;8.710;2023-05-10T08:53:45;16.16;86.73
67157;SHT31;54086;50.126;8.710;2023-05-10T08:56:10;16.19;85.39
67157;SHT31;54086;50.126;8.710;2023-05-10T08:58:37;16.17;83.81
67157;SHT31;54086;50.126;8.710;2023-05-10T09:01:03;16.36;84.09
67157;SHT31;54086;50.126;8.710;2023-05-10T09:03:30;16.39;83.12
67157;SHT31;54086;50.126;8.710;2023-05-10T09:05:56;16.44;82.81
67157;SHT31;54086;50.126;8.710;2023-05-10T09:08:23;16.47;82.58
67157;SHT31;54086;50.126;8.710;2023-05-10T09:10:51;16.26;82.37
67157;SHT31;54086;50.126;8.710;2023-05-10T09:13:17;16.37;82.35
67157;SHT31;54086;50.126;8.710;2023-05-10T09:15:45;16.52;82.19
67157;SHT31;54086;50.126;8.710;2023-05-10T09:18:11;16.50;81.53
67157;SHT31;54086;50.126;8.710;2023-05-10T09:20:37;16.43;82.25
67157;SHT31;54086;50.126;8.710;2023-05-10T09:23:02;16.39;82.14
67157;SHT31;54086;50.126;8.710;2023-05-10T09:25:29;16.37;82.50
67157;SHT31;54086;50.126;8.710;2023-05-10T09:27:54;16.60;82.21
67157;SHT31;54086;50.126;8.710;2023-05-10T09:30:29;16.59;82.28
67157;SHT31;54086;50.126;8.710;2023-05-10T09:32:57;16.67;81.80
67157;SHT31;54086;50.126;8.710;2023-05-10T09:35:25;16.70;81.53
67157;SHT31;54086;50.126;8.710;2023-05-10T09:37:52;16.70;81.54
67157;SHT31;54086;50.126;8.710;2023-05-10T09:40:21;16.65;81.58
67157;SHT31;54086;50.126;8.710;2023-05-10T09:43:12;16.70;81.79
67157;SHT31;54086;50.126;8.710;2023-05-10T09:45:41;16.34;82.57
67157;SHT31;54086;50.126;8.710;2023-05-10T09:48:06;16.16;85.15
67157;SHT31;54086;50.126;8.710;2023-05-10T09:50:31;16.26;85.71
67157;SHT31;54086;50.126;8.710;2023-05-10T09:53:02;16.49;86.48
67157;SHT31;54086;50.126;8.710;2023-05-10T09:55:39;16.80;86.34
67157;SHT31;54086;50.126;8.710;2023-05-10T09:58:05;17.05;85.16
67157;SHT31;54086;50.126;8.710;2023-05-10T10:00:39;17.47;81.82
67157;SHT31;54086;50.126;8.710;2023-05-10T10:03:05;18.05;80.58
67157;SHT31;54086;50.126;8.710;2023-05-10T10:05:33;18.14;80.38
67157;SHT31;54086;50.126;8.710;2023-05-10T10:07:59;17.50;79.21
67157;SHT31;54086;50.126;8.710;2023-05-10T10:10:26;17.14;79.93
67157;SHT31;54086;50.126;8.710;2023-05-10T10:12:52;17.33;80.85
67157;SHT31;54086;50.126;8.710;2023-05-10T10:15:20;16.89;81.23
67157;SHT31;54086;50.126;8.710;2023-05-10T10:17:46;16.13;84.65
67157;SHT31;54086;50.126;8.710;2023-05-10T10:20:12;15.57;90.30
67157;SHT31;54086;50.126;8.710;2023-05-10T10:22:39;15.41;91.14
67157;SHT31;54086;50.126;8.710;2023-05-10T10:25:05;15.44;91.67
67157;SHT31;54086;50.126;8.710;2023-05-10T10:27:36;15.48;91.74
67157;SHT31;54086;50.126;8.710;2023-05-10T10:30:27;15.53;90.48
67157;SHT31;54086;50.126;8.710;2023-05-10T10:35:23;15.41;89.84
67157;SHT31;54086;50.126;8.710;2023-05-10T10:37:50;15.44;90.20
67157;SHT31;54086;50.126;8.710;2023-05-10T10:40:32;15.57;90.60
67157;SHT31;54086;50.126;8.710;2023-05-10T10:42:58;15.69;90.08
67157;SHT31;54086;50.126;8.710;2023-05-10T10:45:43;15.71;88.46
67157;SHT31;54086;50.126;8.710;2023-05-10T10:48:22;15.85;88.64
67157;SHT31;54086;50.126;8.710;2023-05-10T10:50:56;15.79;89.47
67157;SHT31;54086;50.126;8.710;2023-05-10T10:53:22;15.84;89.30
67157;SHT31;54086;50.126;8.710;2023-05-10T10:55:47;15.82;88.48
67157;SHT31;54086;50.126;8.710;2023-05-10T10:58:32;15.58;88.55
67157;SHT31;54086;50.126;8.710;2023-05-10T11:01:13;15.81;87.81
67157;SHT31;54086;50.126;8.710;2023-05-10T11:03:40;15.82;86.60
67157;SHT31;54086;50.126;8.710;2023-05-10T11:06:05;16.23;86.15
67157;SHT31;54086;50.126;8.710;2023-05-10T11:08:32;16.16;83.89
67157;SHT31;54086;50.126;8.710;2023-05-10T11:11:04;16.42;82.84
67157;SHT31;54086;50.126;8.710;2023-05-10T11:16:21;17.02;82.33
67157;SHT31;54086;50.126;8.710;2023-05-10T11:19:08;17.11;82.22
67157;SHT31;54086;50.126;8.710;2023-05-10T11:21:51;17.35;82.22
67157;SHT31;54086;50.126;8.710;2023-05-10T11:24:21;17.56;82.09
67157;SHT31;54086;50.126;8.710;2023-05-10T11:26:49;17.62;80.69
67157;SHT31;54086;50.126;8.710;2023-05-10T11:29:15;17.54;80.94
67157;SHT31;54086;50.126;8.710;2023-05-10T11:31:45;17.60;79.00
67157;SHT31;54086;50.126;8.710;2023-05-10T11:34:11;17.29;80.02
67157;SHT31;54086;50.126;8.710;2023-05-10T11:36:39;17.67;81.29
67157;SHT31;54086;50.126;8.710;2023-05-10T11:39:05;17.76;80.33
67157;SHT31;54086;50.126;8.710;2023-05-10T11:41:31;17.82;79.30
67157;SHT31;54086;50.126;8.710;2023-05-10T11:43:58;17.77;79.31
67157;SHT31;54086;50.126;8.710;2023-05-10T11:46:25;17.76;79.48
67157;SHT31;54086;50.126;8.710;2023-05-10T11:48:54;17.63;79.62
67157;SHT31;54086;50.126;8.710;2023-05-10T11:51:23;17.38;81.24
67157;SHT31;54086;50.126;8.710;2023-05-10T11:53:50;17.28;81.65
67157;SHT31;54086;50.126;8.710;2023-05-10T11:56:16;17.21;82.54
67157;SHT31;54086;50.126;8.710;2023-05-10T11:58:42;16.43;85.33
67157;SHT31;54086;50.126;8.710;2023-05-10T12:01:07;16.36;86.03
67157;SHT31;54086;50.126;8.710;2023-05-10T12:03:34;16.30;86.19
67157;SHT31;54086;50.126;8.710;2023-05-10T12:06:00;16.05;85.93
67157;SHT31;54086;50.126;8.710;2023-05-10T12:08:28;16.02;86.06
67157;SHT31;54086;50.126;8.710;2023-05-10T12:11:05;15.96;86.53
67157;SHT31;54086;50.126;8.710;2023-05-10T12:13:30;15.81;88.11
67157;SHT31;54086;50.126;8.710;2023-05-10T12:16:12;15.82;88.02
67157;SHT31;54086;50.126;8.710;2023-05-10T12:18:40;15.96;87.82
67157;SHT31;54086;50.126;8.710;2023-05-10T12:21:09;15.88;87.62
67157;SHT31;54086;50.126;8.710;2023-05-10T12:23:35;16.01;87.68
67157;SHT31;54086;50.126;8.710;2023-05-10T12:26:04;16.23;86.86
67157;SHT31;54086;50.126;8.710;2023-05-10T12:28:31;16.34;86.34
67157;SHT31;54086;50.126;8.710;2023-05-10T12:30:57;17.10;85.06
67157;SHT31;54086;50.126;8.710;2023-05-10T12:33:24;17.76;81.28
67157;SHT31;54086;50.126;8.710;2023-05-10T12:35:54;18.42;79.04
67157;SHT31;54086;50.126;8.710;2023-05-10T12:38:45;18.81;77.86
67157;SHT31;54086;50.126;8.710;2023-05-10T12:41:16;18.92;78.92
67157;SHT31;54086;50.126;8.710;2023-05-10T12:43:45;19.34;77.10
67157;SHT31;54086;50.126;8.710;2023-05-10T12:46:13;18.85;76.79
67157;SHT31;54086;50.126;8.710;2023-05-10T12:48:40;18.49;75.30
67157;SHT31;54086;50.126;8.710;2023-05-10T12:51:07;18.95;73.61
67157;SHT31;54086;50.126;8.710;2023-05-10T12:53:37;19.49;72.48
67157;SHT31;54086;50.126;8.710;2023-05-10T12:56:03;19.14;70.83
67157;SHT31;54086;50.126;8.710;2023-05-10T12:58:28;19.68;71.23
67157;SHT31;54086;50.126;8.710;2023-05-10T13:00:53;19.49;69.09
67157;SHT31;54086;50.126;8.710;2023-05-10T13:03:22;18.98;69.87
67157;SHT31;54086;50.126;8.710;2023-05-10T13:05:47;19.28;69.64
67157;SHT31;54086;50.126;8.710;2023-05-10T13:08:13;19.43;68.95
67157;SHT31;54086;50.126;8.710;2023-05-10T13:10:38;20.02;67.35
67157;SHT31;54086;50.126;8.710;2023-05-10T13:13:05;19.95;65.35
67157;SHT31;54086;50.126;8.710;2023-05-10T13:15:33;19.88;66.04
67157;SHT31;54086;50.126;8.710;2023-05-10T13:17:59;20.43;64.72
67157;SHT31;54086;50.126;8.710;2023-05-10T13:20:25;20.56;63.49
67157;SHT31;54086;50.126;8.710;2023-05-10T13:22:51;20.95;61.43
67157;SHT31;54086;50.126;8.710;2023-05-10T13:25:16;20.91;62.47
67157;SHT31;54086;50.126;8.710;2023-05-10T13:27:44;20.30;63.86
67157;SHT31;54086;50.126;8.710;2023-05-10T13:30:10;20.37;63.60
67157;SHT31;54086;50.126;8.710;2023-05-10T13:32:36;20.33;63.19
67157;SHT31;54086;50.126;8.710;2023-05-10T13:35:02;21.02;61.91
67157;SHT31;54086;50.126;8.710;2023-05-10T13:37:31;21.35;61.81
67157;SHT31;54086;50.126;8.710;2023-05-10T13:40:02;21.12;60.92
67157;SHT31;54086;50.126;8.710;2023-05-10T13:42:29;20.74;61.34
67157;SHT31;54086;50.126;8.710;2023-05-10T13:44:58;20.91;61.02
67157;SHT31;54086;50.126;8.710;2023-05-10T13:47:23;21.09;60.88
67157;SHT31;54086;50.126;8.710;2023-05-10T13:49:48;21.34;58.88
67157;SHT31;54086;50.126;8.710;2023-05-10T13:52:14;21.85;58.42
67157;SHT31;54086;50.126;8.710;2023-05-10T13:54:39;22.25;57.58
67157;SHT31;54086;50.126;8.710;2023-05-10T13:57:05;22.79;56.32
67157;SHT31;54086;50.126;8.710;2023-05-10T13:59:31;22.57;54.89
67157;SHT31;54086;50.126;8.710;2023-05-10T14:01:57;22.45;54.98
67157;SHT31;54086;50.126;8.710;2023-05-10T14:04:24;22.47;54.96
67157;SHT31;54086;50.126;8.710;2023-05-10T14:06:50;22.01;55.90
67157;SHT31;54086;50.126;8.710;2023-05-10T14:09:16;21.75;56.49
67157;SHT31;54086;50.126;8.710;2023-05-10T14:11:41;22.03;56.73
67157;SHT31;54086;50.126;8.710;2023-05-10T14:14:09;21.76;56.93
67157;SHT31;54086;50.126;8.710;2023-05-10T14:16:34;21.29;57.19
67157;SHT31;54086;50.126;8.710;2023-05-10T14:19:00;21.11;54.58
67157;SHT31;54086;50.126;8.710;2023-05-10T14:21:26;21.00;54.85
67157;SHT31;54086;50.126;8.710;2023-05-10T14:23:53;20.84;55.54
67157;SHT31;54086;50.126;8.710;2023-05-10T14:26:20;21.00;55.58
67157;SHT31;54086;50.126;8.710;2023-05-10T14:28:46;21.19;55.41
67157;SHT31;54086;50.126;8.710;2023-05-10T14:31:12;20.66;56.67
67157;SHT31;54086;50.126;8.710;2023-05-10T14:33:37;20.56;56.93
67157;SHT31;54086;50.126;8.710;2023-05-10T14:36:03;20.28;57.26
67157;SHT31;54086;50.126;8.710;2023-05-10T14:38:29;20.49;57.45
67157;SHT31;54086;50.126;8.710;2023-05-10T14:40:54;19.96;56.91
67157;SHT31;54086;50.126;8.710;2023-05-10T14:43:21;20.20;57.18
67157;SHT31;54086;50.126;8.710;2023-05-10T14:45:47;19.78;58.42
67157;SHT31;54086;50.126;8.710;2023-05-10T14:48:13;19.96;59.11
67157;SHT31;54086;50.126;8.710;2023-05-10T14:50:41;19.95;59.22
67157;SHT31;54086;50.126;8.710;2023-05-10T14:53:08;19.91;58.91
67157;SHT31;54086;50.126;8.710;2023-05-10T14:55:33;20.29;59.05
67157;SHT31;54086;50.126;8.710;2023-05-10T14:58:00;20.29;58.81
67157;SHT31;54086;50.126;8.710;2023-05-10T15:00:26;20.25;58.47
67157;SHT31;54086;50.126;8.710;2023-05-10T15:02:51;20.05;58.16
67157;SHT31;54086;50.126;8.710;2023-05-10T15:05:16;19.91;58.11
67157;SHT31;54086;50.126;8.710;2023-05-10T15:07:42;19.79;58.54
67157;SHT31;54086;50.126;8.710;2023-05-10T15:10:09;19.71;58.56
67157;SHT31;54086;50.126;8.710;2023-05-10T15:12:35;19.58;59.60
67157;SHT31;54086;50.126;8.710;2023-05-10T15:15:00;19.88;59.13
67157;SHT31;54086;50.126;8.710;2023-05-10T15:17:27;19.88;59.10
67157;SHT31;54086;50.126;8.710;2023-05-10T15:19:52;19.96;58.89
67157;SHT31;54086;50.126;8.710;2023-05-10T15:22:17;20.33;58.10
67157;SHT31;54086;50.126;8.710;2023-05-10T15:24:43;20.76;57.47
67157;SHT31;54086;50.126;8.710;2023-05-10T15:27:10;20.02;58.58
67157;SHT31;54086;50.126;8.710;2023-05-10T15:29:35;20.20;58.59
67157;SHT31;54086;50.126;8.710;2023-05-10T15:32:01;20.36;58.99
67157;SHT31;54086;50.126;8.710;2023-05-10T15:34:28;19.88;60.63
67157;SHT31;54086;50.126;8.710;2023-05-10T15:36:54;20.09;60.45
67157;SHT31;54086;50.126;8.710;2023-05-10T15:39:19;19.74;61.17
67157;SHT31;54086;50.126;8.710;2023-05-10T15:41:45;19.50;61.45
67157;SHT31;54086;50.126;8.710;2023-05-10T15:44:10;19.35;62.06
67157;SHT31;54086;50.126;8.710;2023-05-10T15:46:36;19.37;62.46
67157;SHT31;54086;50.126;8.710;2023-05-10T15:49:04;19.06;63.28
67157;SHT31;54086;50.126;8.710;2023-05-10T15:51:30;19.23;62.98
67157;SHT31;54086;50.126;8.710;2023-05-10T15:53:57;19.37;62.89
67157;SHT31;54086;50.126;8.710;2023-05-10T15:56:23;19.28;63.22